sensor_id;sensor_type;location;lat;lon;timestamp;temperature;humidity
2873;DHT22;1444;49.166;7.312;2023-06-10T00:01:15;17.90;90.00
2873;DHT22;1444;49.166;7.312;2023-06-10T00:03:43;17.90;89.50
2873;DHT22;1444;49.166;7.312;2023-06-10T00:06:10;17.90;89.70
2873;DHT22;1444;49.166;7.312;2023-06-10T00:08:36;17.80;89.50
2873;DHT22;1444;49.166;7.312;2023-06-10T00:11:05;17.70;90.10
2873;DHT22;1444;49.166;7.312;2023-06-10T00:13:32;17.60;90.30
2873;DHT22;1444;49.166;7.312;2023-06-10T00:15:58;17.40;90.50
2873;DHT22;1444;49.166;7.312;2023-06-10T00:18:25;17.30;90.60
2873;DHT22;1444;49.166;7.312;2023-06-10T00:20:56;17.20;90.40
2873;DHT22;1444;49.166;7.312;2023-06-10T00:23:23;17.20;90.70
2873;DHT22;1444;49.166;7.312;2023-06-10T00:25:50;17.20;90.70
2873;DHT22;1444;49.166;7.312;2023-06-10T00:28:17;17.10;90.90
2873;DHT22;1444;49.166;7.312;2023-06-10T00:30:44;17.10;91.10
2873;DHT22;1444;49.166;7.312;2023-06-10T00:33:11;17.00;90.80
2873;DHT22;1444;49.166;7.312;2023-06-10T00:35:37;16.90;91.20
2873;DHT22;1444;49.166;7.312;2023-06-10T00:38:05;16.80;91.50
2873;DHT22;1444;49.166;7.312;2023-06-10T00:40:33;16.80;91.40
2873;DHT22;1444;49.166;7.312;2023-06-10T00:43:05;16.80;91.60
2873;DHT22;1444;49.166;7.312;2023-06-10T00:45:32;16.80;91.70
2873;DHT22;1444;49.166;7.312;2023-06-10T00:47:59;16.80;91.90
2873;DHT22;1444;49.166;7.312;2023-06-10T00:50:26;16.90;91.90
2873;DHT22;1444;49.166;7.312;2023-06-10T00:52:54;16.90;91.40
2873;DHT22;1444;49.166;7.312;2023-06-10T00:55:23;16.80;91.40
2873;DHT22;1444;49.166;7.312;2023-06-10T00:57:50;16.80;91.40
2873;DHT22;1444;49.166;7.312;2023-06-10T01:00:18;16.70;91.40
2873;DHT22;1444;49.166;7.312;2023-06-10T01:02:45;16.80;91.50
2873;DHT22;1444;49.166;7.312;2023-06-10T01:05:11;16.70;91.80
2873;DHT22;1444;49.166;7.312;2023-06-10T01:07:43;16.70;91.90
2873;DHT22;1444;49.166;7.312;2023-06-10T01:10:16;16.80;92.00
2873;DHT22;1444;49.166;7.312;2023-06-10T01:12:49;16.80;91.80
2873;DHT22;1444;49.166;7.312;2023-06-10T01:15:19;16.90;92.00
2873;DHT22;1444;49.166;7.312;2023-06-10T01:17:55;16.90;91.80
2873;DHT22;1444;49.166;7.312;2023-06-10T01:20:22;16.90;92.00
2873;DHT22;1444;49.166;7.312;2023-06-10T01:25:19;17.00;92.40
2873;DHT22;1444;49.166;7.312;2023-06-10T01:27:56;17.00;92.30
2873;DHT22;1444;49.166;7.312;2023-06-10T01:30:28;17.10;92.30
2873;DHT22;1444;49.166;7.312;2023-06-10T01:32:58;17.00;92.40
2873;DHT22;1444;49.166;7.312;2023-06-10T01:35:27;17.10;92.40
2873;DHT22;1444;49.166;7.312;2023-06-10T01:37:58;17.10;92.40
2873;DHT22;1444;49.166;7.312;2023-06-10T01:40:26;17.10;92.30
2873;DHT22;1444;49.166;7.312;2023-06-10T01:42:55;17.20;92.20
2873;DHT22;1444;49.166;7.312;2023-06-10T01:45:22;17.20;92.10
2873;DHT22;1444;49.166;7.312;2023-06-10T01:47:49;17.20;92.20
2873;DHT22;1444;49.166;7.312;2023-06-10T01:50:16;17.20;92.20
2873;DHT22;1444;49.166;7.312;2023-06-10T01:52:43;17.20;92.20
2873;DHT22;1444;49.166;7.312;2023-06-10T01:55:12;17.20;92.10
2873;DHT22;1444;49.166;7.312;2023-06-10T01:57:38;17.10;92.20
2873;DHT22;1444;49.166;7.312;2023-06-10T02:00:06;17.20;92.20
2873;DHT22;1444;49.166;7.312;2023-06-10T02:02:33;17.20;92.30
2873;DHT22;1444;49.166;7.312;2023-06-10T02:05:00;17.20;92.10
2873;DHT22;1444;49.166;7.312;2023-06-10T02:07:28;17.20;92.10
2873;DHT22;1444;49.166;7.312;2023-06-10T02:09:54;17.20;91.80
2873;DHT22;1444;49.166;7.312;2023-06-10T02:12:23;17.20;91.90
2873;DHT22;1444;49.166;7.312;2023-06-10T02:14:49;17.20;91.90
2873;DHT22;1444;49.166;7.312;2023-06-10T02:17:17;17.10;91.90
2873;DHT22;1444;49.166;7.312;2023-06-10T02:19:44;17.10;92.00
2873;DHT22;1444;49.166;7.312;2023-06-10T02:22:19;17.00;91.80
2873;DHT22;1444;49.166;7.312;2023-06-10T02:24:45;17.00;91.70
2873;DHT22;1444;49.166;7.312;2023-06-10T02:27:12;17.00;91.80
2873;DHT22;1444;49.166;7.312;2023-06-10T02:29:41;17.00;91.70
2873;DHT22;1444;49.166;7.312;2023-06-10T02:32:09;16.90;91.90
2873;DHT22;1444;49.166;7.312;2023-06-10T02:34:36;16.80;92.10
2873;DHT22;1444;49.166;7.312;2023-06-10T02:37:03;16.90;92.20
2873;DHT22;1444;49.166;7.312;2023-06-10T02:39:30;16.80;92.30
2873;DHT22;1444;49.166;7.312;2023-06-10T02:41:57;16.80;92.30
2873;DHT22;1444;49.166;7.312;2023-06-10T02:44:24;16.80;92.20
2873;DHT22;1444;49.166;7.312;2023-06-10T02:46:52;16.80;92.40
2873;DHT22;1444;49.166;7.312;2023-06-10T02:49:19;16.70;92.40
2873;DHT22;1444;49.166;7.312;2023-06-10T02:51:46;16.70;92.30
2873;DHT22;1444;49.166;7.312;2023-06-10T02:54:12;16.70;92.30
2873;DHT22;1444;49.166;7.312;2023-06-10T02:56:39;16.60;92.30
2873;DHT22;1444;49.166;7.312;2023-06-10T02:59:07;16.60;92.30
2873;DHT22;1444;49.166;7.312;2023-06-10T03:01:34;16.60;92.30
2873;DHT22;1444;49.166;7.312;2023-06-10T03:04:03;16.60;92.40
2873;DHT22;1444;49.166;7.312;2023-06-10T03:06:30;16.60;92.40
2873;DHT22;1444;49.166;7.312;2023-06-10T03:08:59;16.50;92.40
2873;DHT22;1444;49.166;7.312;2023-06-10T03:11:26;16.50;92.30
2873;DHT22;1444;49.166;7.312;2023-06-10T03:13:53;16.40;92.30
2873;DHT22;1444;49.166;7.312;2023-06-10T03:16:20;16.40;92.40
2873;DHT22;1444;49.166;7.312;2023-06-10T03:18:48;16.40;92.50
2873;DHT22;1444;49.166;7.312;2023-06-10T03:21:16;16.40;92.60
2873;DHT22;1444;49.166;7.312;2023-06-10T03:23:43;16.30;92.70
2873;DHT22;1444;49.166;7.312;2023-06-10T03:26:10;16.30;92.70
2873;DHT22;1444;49.166;7.312;2023-06-10T03:28:39;16.30;92.80
2873;DHT22;1444;49.166;7.312;2023-06-10T03:31:06;16.30;92.90
2873;DHT22;1444;49.166;7.312;2023-06-10T03:33:33;16.40;92.90
2873;DHT22;1444;49.166;7.312;2023-06-10T03:36:01;16.40;92.80
2873;DHT22;1444;49.166;7.312;2023-06-10T03:38:29;16.40;92.80
2873;DHT22;1444;49.166;7.312;2023-06-10T03:40:56;16.40;92.50
2873;DHT22;1444;49.166;7.312;2023-06-10T03:43:23;16.30;91.90
2873;DHT22;1444;49.166;7.312;2023-06-10T03:45:50;16.00;91.90
2873;DHT22;1444;49.166;7.312;2023-06-10T03:48:17;15.80;92.50
2873;DHT22;1444;49.166;7.312;2023-06-10T03:50:44;15.60;93.40
2873;DHT22;1444;49.166;7.312;2023-06-10T03:53:13;15.30;93.50
2873;DHT22;1444;49.166;7.312;2023-06-10T03:55:41;15.30;93.70
2873;DHT22;1444;49.166;7.312;2023-06-10T03:58:08;15.20;93.90
2873;DHT22;1444;49.166;7.312;2023-06-10T04:00:35;17.60;95.30
2873;DHT22;1444;49.166;7.312;2023-06-10T04:03:06;15.20;94.20
2873;DHT22;1444;49.166;7.312;2023-06-10T04:05:35;15.30;94.10
2873;DHT22;1444;49.166;7.312;2023-06-10T04:08:02;15.40;93.80
2873;DHT22;1444;49.166;7.312;2023-06-10T04:10:28;15.40;93.80
2873;DHT22;1444;49.166;7.312;2023-06-10T04:12:57;15.40;93.80
2873;DHT22;1444;49.166;7.312;2023-06-10T04:15:24;15.50;93.60
2873;DHT22;1444;49.166;7.312;2023-06-10T04:17:50;15.60;93.40
2873;DHT22;1444;49.166;7.312;2023-06-10T04:22:45;15.60;93.80
2873;DHT22;1444;49.166;7.312;2023-06-10T04:25:12;15.70;93.80
2873;DHT22;1444;49.166;7.312;2023-06-10T04:30:08;15.80;93.70
2873;DHT22;1444;49.166;7.312;2023-06-10T04:32:35;15.60;93.80
2873;DHT22;1444;49.166;7.312;2023-06-10T04:35:01;15.80;94.00
2873;DHT22;1444;49.166;7.312;2023-06-10T04:37:28;15.90;93.80
2873;DHT22;1444;49.166;7.312;2023-06-10T04:39:55;15.90;93.70
2873;DHT22;1444;49.166;7.312;2023-06-10T04:42:22;16.00;93.90
2873;DHT22;1444;49.166;7.312;2023-06-10T04:44:49;16.00;93.60
2873;DHT22;1444;49.166;7.312;2023-06-10T04:47:17;16.10;93.60
2873;DHT22;1444;49.166;7.312;2023-06-10T04:49:44;16.10;93.80
2873;DHT22;1444;49.166;7.312;2023-06-10T04:52:11;16.10;94.00
2873;DHT22;1444;49.166;7.312;2023-06-10T04:54:39;16.10;93.80
2873;DHT22;1444;49.166;7.312;2023-06-10T04:57:07;16.20;93.90
2873;DHT22;1444;49.166;7.312;2023-06-10T04:59:34;16.20;94.20
2873;DHT22;1444;49.166;7.312;2023-06-10T05:02:03;16.30;94.30
2873;DHT22;1444;49.166;7.312;2023-06-10T05:04:31;16.50;94.60
2873;DHT22;1444;49.166;7.312;2023-06-10T05:06:59;16.50;94.80
2873;DHT22;1444;49.166;7.312;2023-06-10T05:09:26;17.80;95.80
2873;DHT22;1444;49.166;7.312;2023-06-10T05:11:53;16.70;95.00
2873;DHT22;1444;49.166;7.312;2023-06-10T05:14:20;16.80;94.80
2873;DHT22;1444;49.166;7.312;2023-06-10T05:16:47;16.90;95.30
2873;DHT22;1444;49.166;7.312;2023-06-10T05:19:14;17.00;95.10
2873;DHT22;1444;49.166;7.312;2023-06-10T05:21:44;17.10;95.50
2873;DHT22;1444;49.166;7.312;2023-06-10T05:24:11;17.20;95.40
2873;DHT22;1444;49.166;7.312;2023-06-10T05:26:38;17.40;95.40
2873;DHT22;1444;49.166;7.312;2023-06-10T05:29:04;17.60;95.60
2873;DHT22;1444;49.166;7.312;2023-06-10T05:31:31;17.70;95.70
2873;DHT22;1444;49.166;7.312;2023-06-10T05:33:58;17.90;95.50
2873;DHT22;1444;49.166;7.312;2023-06-10T05:36:25;18.10;94.50
2873;DHT22;1444;49.166;7.312;2023-06-10T05:38:53;18.30;94.80
2873;DHT22;1444;49.166;7.312;2023-06-10T05:41:20;18.40;94.90
2873;DHT22;1444;49.166;7.312;2023-06-10T05:43:47;18.60;93.70
2873;DHT22;1444;49.166;7.312;2023-06-10T05:46:14;18.70;93.10
2873;DHT22;1444;49.166;7.312;2023-06-10T05:48:41;18.90;93.90
2873;DHT22;1444;49.166;7.312;2023-06-10T05:51:07;19.00;93.70
2873;DHT22;1444;49.166;7.312;2023-06-10T05:53:35;19.10;93.20
2873;DHT22;1444;49.166;7.312;2023-06-10T05:56:05;19.20;94.00
2873;DHT22;1444;49.166;7.312;2023-06-10T05:58:32;19.30;94.10
2873;DHT22;1444;49.166;7.312;2023-06-10T06:00:58;19.40;94.20
2873;DHT22;1444;49.166;7.312;2023-06-10T06:03:25;19.50;94.20
2873;DHT22;1444;49.166;7.312;2023-06-10T06:05:54;19.60;95.30
2873;DHT22;1444;49.166;7.312;2023-06-10T06:08:20;19.70;94.60
2873;DHT22;1444;49.166;7.312;2023-06-10T06:10:47;19.90;94.70
2873;DHT22;1444;49.166;7.312;2023-06-10T06:13:15;20.00;94.40
2873;DHT22;1444;49.166;7.312;2023-06-10T06:15:42;20.10;94.00
2873;DHT22;1444;49.166;7.312;2023-06-10T06:18:09;20.20;93.90
2873;DHT22;1444;49.166;7.312;2023-06-10T06:20:36;20.40;93.70
2873;DHT22;1444;49.166;7.312;2023-06-10T06:23:02;20.50;93.20
2873;DHT22;1444;49.166;7.312;2023-06-10T06:25:29;20.70;94.00
2873;DHT22;1444;49.166;7.312;2023-06-10T06:27:56;20.80;93.50
2873;DHT22;1444;49.166;7.312;2023-06-10T06:30:24;20.90;93.20
2873;DHT22;1444;49.166;7.312;2023-06-10T06:32:51;21.10;93.10
2873;DHT22;1444;49.166;7.312;2023-06-10T06:35:18;21.20;92.70
2873;DHT22;1444;49.166;7.312;2023-06-10T06:37:45;21.30;91.70
2873;DHT22;1444;49.166;7.312;2023-06-10T06:40:12;21.50;92.30
2873;DHT22;1444;49.166;7.312;2023-06-10T06:42:39;21.60;90.90
2873;DHT22;1444;49.166;7.312;2023-06-10T06:45:06;21.80;91.30
2873;DHT22;1444;49.166;7.312;2023-06-10T06:47:35;21.90;90.80
2873;DHT22;1444;49.166;7.312;2023-06-10T06:50:02;22.10;90.80
2873;DHT22;1444;49.166;7.312;2023-06-10T06:52:29;22.20;90.90
2873;DHT22;1444;49.166;7.312;2023-06-10T06:54:55;22.50;90.30
2873;DHT22;1444;49.166;7.312;2023-06-10T06:57:22;22.70;90.20
2873;DHT22;1444;49.166;7.312;2023-06-10T06:59:49;22.80;90.10
2873;DHT22;1444;49.166;7.312;2023-06-10T07:02:16;23.10;89.30
2873;DHT22;1444;49.166;7.312;2023-06-10T07:04:45;23.40;90.00
2873;DHT22;1444;49.166;7.312;2023-06-10T07:07:14;23.70;89.50
2873;DHT22;1444;49.166;7.312;2023-06-10T07:09:41;25.70;90.20
2873;DHT22;1444;49.166;7.312;2023-06-10T07:12:09;24.20;87.70
2873;DHT22;1444;49.166;7.312;2023-06-10T07:17:03;24.70;87.50
2873;DHT22;1444;49.166;7.312;2023-06-10T07:19:30;24.90;86.50
2873;DHT22;1444;49.166;7.312;2023-06-10T07:21:58;25.20;86.50
2873;DHT22;1444;49.166;7.312;2023-06-10T07:24:25;25.40;85.40
2873;DHT22;1444;49.166;7.312;2023-06-10T07:26:51;25.60;85.70
2873;DHT22;1444;49.166;7.312;2023-06-10T07:29:18;25.90;85.30
2873;DHT22;1444;49.166;7.312;2023-06-10T07:31:45;26.10;84.00
2873;DHT22;1444;49.166;7.312;2023-06-10T07:34:12;26.20;84.50
2873;DHT22;1444;49.166;7.312;2023-06-10T07:39:07;26.50;83.90
2873;DHT22;1444;49.166;7.312;2023-06-10T07:41:34;26.70;82.40
2873;DHT22;1444;49.166;7.312;2023-06-10T07:44:01;26.80;81.80
2873;DHT22;1444;49.166;7.312;2023-06-10T07:46:28;26.90;79.90
2873;DHT22;1444;49.166;7.312;2023-06-10T07:48:55;27.00;80.50
2873;DHT22;1444;49.166;7.312;2023-06-10T07:51:21;27.10;79.50
2873;DHT22;1444;49.166;7.312;2023-06-10T07:53:48;27.20;78.10
2873;DHT22;1444;49.166;7.312;2023-06-10T07:56:17;27.30;77.90
2873;DHT22;1444;49.166;7.312;2023-06-10T07:58:44;27.50;79.20
2873;DHT22;1444;49.166;7.312;2023-06-10T08:01:10;27.50;77.60
2873;DHT22;1444;49.166;7.312;2023-06-10T08:03:37;27.70;77.70
2873;DHT22;1444;49.166;7.312;2023-06-10T08:06:04;27.90;75.40
2873;DHT22;1444;49.166;7.312;2023-06-10T08:08:32;27.90;75.90
2873;DHT22;1444;49.166;7.312;2023-06-10T08:11:00;28.10;76.90
2873;DHT22;1444;49.166;7.312;2023-06-10T08:13:28;28.20;76.50
2873;DHT22;1444;49.166;7.312;2023-06-10T08:15:55;28.20;71.30
2873;DHT22;1444;49.166;7.312;2023-06-10T08:18:21;28.30;74.80
2873;DHT22;1444;49.166;7.312;2023-06-10T08:20:48;28.40;71.90
2873;DHT22;1444;49.166;7.312;2023-06-10T08:23:15;28.40;73.10
2873;DHT22;1444;49.166;7.312;2023-06-10T08:25:42;28.40;72.20
2873;DHT22;1444;49.166;7.312;2023-06-10T08:28:09;27.50;72.50
2873;DHT22;1444;49.166;7.312;2023-06-10T08:30:37;28.50;71.60
2873;DHT22;1444;49.166;7.312;2023-06-10T08:33:04;28.50;71.80
2873;DHT22;1444;49.166;7.312;2023-06-10T08:35:31;28.60;73.20
2873;DHT22;1444;49.166;7.312;2023-06-10T08:37:57;28.60;71.70
2873;DHT22;1444;49.166;7.312;2023-06-10T08:40:24;28.60;71.80
2873;DHT22;1444;49.166;7.312;2023-06-10T08:42:59;28.60;71.70
2873;DHT22;1444;49.166;7.312;2023-06-10T08:45:29;28.60;70.90
2873;DHT22;1444;49.166;7.312;2023-06-10T08:47:59;28.80;74.10
2873;DHT22;1444;49.166;7.312;2023-06-10T08:50:28;28.80;72.00
2873;DHT22;1444;49.166;7.312;2023-06-10T08:52:57;29.00;71.30
2873;DHT22;1444;49.166;7.312;2023-06-10T08:55:29;29.10;73.70
2873;DHT22;1444;49.166;7.312;2023-06-10T08:57:57;29.30;73.20
2873;DHT22;1444;49.166;7.312;2023-06-10T09:00:26;29.30;71.80
2873;DHT22;1444;49.166;7.312;2023-06-10T09:02:53;29.40;70.10
2873;DHT22;1444;49.166;7.312;2023-06-10T09:05:22;29.50;69.20
2873;DHT22;1444;49.166;7.312;2023-06-10T09:07:49;29.50;71.80
2873;DHT22;1444;49.166;7.312;2023-06-10T09:10:17;29.50;69.00
2873;DHT22;1444;49.166;7.312;2023-06-10T09:12:44;29.40;69.50
2873;DHT22;1444;49.166;7.312;2023-06-10T09:15:11;29.50;70.30
2873;DHT22;1444;49.166;7.312;2023-06-10T09:17:40;29.60;70.20
2873;DHT22;1444;49.166;7.312;2023-06-10T09:20:07;29.60;69.30
2873;DHT22;1444;49.166;7.312;2023-06-10T09:22:36;29.70;70.70
2873;DHT22;1444;49.166;7.312;2023-06-10T09:25:03;29.80;70.80
2873;DHT22;1444;49.166;7.312;2023-06-10T09:27:31;29.90;70.10
2873;DHT22;1444;49.166;7.312;2023-06-10T09:29:58;29.90;67.70
2873;DHT22;1444;49.166;7.312;2023-06-10T09:32:26;29.90;68.30
2873;DHT22;1444;49.166;7.312;2023-06-10T09:34:53;29.90;69.50
2873;DHT22;1444;49.166;7.312;2023-06-10T09:37:21;29.90;68.80
2873;DHT22;1444;49.166;7.312;2023-06-10T09:40:02;29.90;67.60
2873;DHT22;1444;49.166;7.312;2023-06-10T09:45:00;29.90;68.90
2873;DHT22;1444;49.166;7.312;2023-06-10T09:47:26;30.00;67.90
2873;DHT22;1444;49.166;7.312;2023-06-10T09:49:53;29.90;67.90
2873;DHT22;1444;49.166;7.312;2023-06-10T09:52:23;30.10;70.00
2873;DHT22;1444;49.166;7.312;2023-06-10T09:54:50;30.30;71.30
2873;DHT22;1444;49.166;7.312;2023-06-10T09:57:19;30.50;70.80
2873;DHT22;1444;49.166;7.312;2023-06-10T09:59:46;30.60;70.60
2873;DHT22;1444;49.166;7.312;2023-06-10T10:02:16;30.60;69.00
2873;DHT22;1444;49.166;7.312;2023-06-10T10:04:43;30.60;67.40
2873;DHT22;1444;49.166;7.312;2023-06-10T10:07:11;30.60;67.30
2873;DHT22;1444;49.166;7.312;2023-06-10T10:09:38;30.50;66.80
2873;DHT22;1444;49.166;7.312;2023-06-10T10:12:09;30.70;67.50
2873;DHT22;1444;49.166;7.312;2023-06-10T10:14:38;30.80;69.80
2873;DHT22;1444;49.166;7.312;2023-06-10T10:17:09;30.80;65.80
2873;DHT22;1444;49.166;7.312;2023-06-10T10:19:40;30.80;66.70
2873;DHT22;1444;49.166;7.312;2023-06-10T10:22:13;30.90;66.20
2873;DHT22;1444;49.166;7.312;2023-06-10T10:24:46;30.90;66.30
2873;DHT22;1444;49.166;7.312;2023-06-10T10:27:17;31.00;68.80
2873;DHT22;1444;49.166;7.312;2023-06-10T10:29:47;31.10;69.20
2873;DHT22;1444;49.166;7.312;2023-06-10T10:32:16;31.20;66.70
2873;DHT22;1444;49.166;7.312;2023-06-10T10:34:48;31.30;65.60
2873;DHT22;1444;49.166;7.312;2023-06-10T10:37:17;31.30;67.00
2873;DHT22;1444;49.166;7.312;2023-06-10T10:39:44;31.50;64.60
2873;DHT22;1444;49.166;7.312;2023-06-10T10:42:12;31.50;67.00
2873;DHT22;1444;49.166;7.312;2023-06-10T10:44:40;31.70;65.30
2873;DHT22;1444;49.166;7.312;2023-06-10T10:47:09;31.40;62.50
2873;DHT22;1444;49.166;7.312;2023-06-10T10:49:37;31.30;64.30
2873;DHT22;1444;49.166;7.312;2023-06-10T10:52:11;31.10;64.90
2873;DHT22;1444;49.166;7.312;2023-06-10T10:54:44;31.10;65.00
2873;DHT22;1444;49.166;7.312;2023-06-10T10:57:16;31.10;63.30
2873;DHT22;1444;49.166;7.312;2023-06-10T11:00:01;31.10;63.00
2873;DHT22;1444;49.166;7.312;2023-06-10T11:02:36;31.30;66.90
2873;DHT22;1444;49.166;7.312;2023-06-10T11:05:06;31.40;67.20
2873;DHT22;1444;49.166;7.312;2023-06-10T11:07:34;31.30;65.30
2873;DHT22;1444;49.166;7.312;2023-06-10T11:10:02;31.20;62.60
2873;DHT22;1444;49.166;7.312;2023-06-10T11:12:49;31.10;65.50
2873;DHT22;1444;49.166;7.312;2023-06-10T11:15:21;31.10;64.80
2873;DHT22;1444;49.166;7.312;2023-06-10T11:18:13;31.20;62.40
2873;DHT22;1444;49.166;7.312;2023-06-10T11:20:45;31.40;65.50
2873;DHT22;1444;49.166;7.312;2023-06-10T11:23:25;31.50;62.80
2873;DHT22;1444;49.166;7.312;2023-06-10T11:25:55;31.50;63.70
2873;DHT22;1444;49.166;7.312;2023-06-10T11:28:35;31.50;63.50
2873;DHT22;1444;49.166;7.312;2023-06-10T11:31:02;31.50;62.20
2873;DHT22;1444;49.166;7.312;2023-06-10T11:33:31;31.70;64.30
2873;DHT22;1444;49.166;7.312;2023-06-10T11:35:58;31.60;62.40
2873;DHT22;1444;49.166;7.312;2023-06-10T11:38:25;31.80;60.70
2873;DHT22;1444;49.166;7.312;2023-06-10T11:40:52;31.80;62.20
2873;DHT22;1444;49.166;7.312;2023-06-10T11:43:19;32.00;62.50
2873;DHT22;1444;49.166;7.312;2023-06-10T11:45:46;32.10;61.80
2873;DHT22;1444;49.166;7.312;2023-06-10T11:48:13;31.80;58.60
2873;DHT22;1444;49.166;7.312;2023-06-10T11:50:41;31.90;62.10
2873;DHT22;1444;49.166;7.312;2023-06-10T11:53:08;32.20;61.80
2873;DHT22;1444;49.166;7.312;2023-06-10T11:55:42;32.10;62.10
2873;DHT22;1444;49.166;7.312;2023-06-10T11:58:13;32.30;61.40
2873;DHT22;1444;49.166;7.312;2023-06-10T12:00:45;32.10;58.60
2873;DHT22;1444;49.166;7.312;2023-06-10T12:03:12;31.90;59.60
2873;DHT22;1444;49.166;7.312;2023-06-10T12:05:42;32.10;61.70
2873;DHT22;1444;49.166;7.312;2023-06-10T12:08:19;32.40;60.90
2873;DHT22;1444;49.166;7.312;2023-06-10T12:10:47;32.50;63.40
2873;DHT22;1444;49.166;7.312;2023-06-10T12:13:14;32.70;63.30
2873;DHT22;1444;49.166;7.312;2023-06-10T12:15:41;32.70;60.70
2873;DHT22;1444;49.166;7.312;2023-06-10T12:18:08;32.90;62.70
2873;DHT22;1444;49.166;7.312;2023-06-10T12:20:43;32.90;63.30
2873;DHT22;1444;49.166;7.312;2023-06-10T12:23:11;33.00;61.20
2873;DHT22;1444;49.166;7.312;2023-06-10T12:25:38;33.30;63.20
2873;DHT22;1444;49.166;7.312;2023-06-10T12:28:05;33.10;58.50
2873;DHT22;1444;49.166;7.312;2023-06-10T12:30:33;32.60;57.20
2873;DHT22;1444;49.166;7.312;2023-06-10T12:32:59;32.20;57.20
2873;DHT22;1444;49.166;7.312;2023-06-10T12:35:27;32.10;58.80
2873;DHT22;1444;49.166;7.312;2023-06-10T12:37:57;32.00;57.20
2873;DHT22;1444;49.166;7.312;2023-06-10T12:40:28;32.10;61.50
2873;DHT22;1444;49.166;7.312;2023-06-10T12:42:55;32.40;60.00
2873;DHT22;1444;49.166;7.312;2023-06-10T12:45:29;32.60;57.20
2873;DHT22;1444;49.166;7.312;2023-06-10T12:48:06;32.40;56.70
2873;DHT22;1444;49.166;7.312;2023-06-10T12:50:34;32.50;58.30
2873;DHT22;1444;49.166;7.312;2023-06-10T12:53:03;32.60;58.20
2873;DHT22;1444;49.166;7.312;2023-06-10T12:55:30;32.80;59.20
2873;DHT22;1444;49.166;7.312;2023-06-10T12:57:57;32.80;58.60
2873;DHT22;1444;49.166;7.312;2023-06-10T13:00:24;32.80;57.10
2873;DHT22;1444;49.166;7.312;2023-06-10T13:02:54;32.60;59.10
2873;DHT22;1444;49.166;7.312;2023-06-10T13:05:22;32.70;58.70
2873;DHT22;1444;49.166;7.312;2023-06-10T13:07:48;32.90;59.00
2873;DHT22;1444;49.166;7.312;2023-06-10T13:10:17;33.10;60.10
2873;DHT22;1444;49.166;7.312;2023-06-10T13:12:44;33.30;59.20
2873;DHT22;1444;49.166;7.312;2023-06-10T13:15:12;33.30;57.50
2873;DHT22;1444;49.166;7.312;2023-06-10T13:17:39;33.30;59.00
2873;DHT22;1444;49.166;7.312;2023-06-10T13:20:07;33.30;60.10
2873;DHT22;1444;49.166;7.312;2023-06-10T13:22:34;33.20;60.40
2873;DHT22;1444;49.166;7.312;2023-06-10T13:25:02;33.00;58.80
2873;DHT22;1444;49.166;7.312;2023-06-10T13:27:31;32.60;58.20
2873;DHT22;1444;49.166;7.312;2023-06-10T13:29:57;32.40;61.50
2873;DHT22;1444;49.166;7.312;2023-06-10T13:32:24;32.30;60.00
2873;DHT22;1444;49.166;7.312;2023-06-10T13:34:51;32.30;62.40
2873;DHT22;1444;49.166;7.312;2023-06-10T13:37:18;32.10;59.80
2873;DHT22;1444;49.166;7.312;2023-06-10T13:39:46;32.20;60.90
2873;DHT22;1444;49.166;7.312;2023-06-10T13:42:14;32.20;59.60
2873;DHT22;1444;49.166;7.312;2023-06-10T13:44:42;32.30;61.20
2873;DHT22;1444;49.166;7.312;2023-06-10T13:47:09;32.30;60.30
2873;DHT22;1444;49.166;7.312;2023-06-10T13:49:35;32.50;59.90
2873;DHT22;1444;49.166;7.312;2023-06-10T13:52:03;32.70;59.10
2873;DHT22;1444;49.166;7.312;2023-06-10T13:54:30;32.90;59.00
2873;DHT22;1444;49.166;7.312;2023-06-10T13:56:56;33.00;59.60
2873;DHT22;1444;49.166;7.312;2023-06-10T13:59:23;33.00;57.80
2873;DHT22;1444;49.166;7.312;2023-06-10T14:01:51;32.90;58.70
2873;DHT22;1444;49.166;7.312;2023-06-10T14:04:18;33.00;59.80
2873;DHT22;1444;49.166;7.312;2023-06-10T14:06:45;32.80;59.50
2873;DHT22;1444;49.166;7.312;2023-06-10T14:09:12;32.90;59.50
2873;DHT22;1444;49.166;7.312;2023-06-10T14:11:39;32.80;59.00
2873;DHT22;1444;49.166;7.312;2023-06-10T14:14:06;32.60;59.20
2873;DHT22;1444;49.166;7.312;2023-06-10T14:16:33;32.20;58.10
2873;DHT22;1444;49.166;7.312;2023-06-10T14:19:01;31.90;58.10
2873;DHT22;1444;49.166;7.312;2023-06-10T14:21:28;31.90;59.80
2873;DHT22;1444;49.166;7.312;2023-06-10T14:23:55;31.70;60.70
2873;DHT22;1444;49.166;7.312;2023-06-10T14:26:22;31.60;60.80
2873;DHT22;1444;49.166;7.312;2023-06-10T14:28:48;31.40;60.60
2873;DHT22;1444;49.166;7.312;2023-06-10T14:31:16;31.30;61.00
2873;DHT22;1444;49.166;7.312;2023-06-10T14:33:43;31.10;61.30
2873;DHT22;1444;49.166;7.312;2023-06-10T14:36:11;31.20;63.40
2873;DHT22;1444;49.166;7.312;2023-06-10T14:38:38;31.30;61.30
2873;DHT22;1444;49.166;7.312;2023-06-10T14:41:05;31.50;62.50
2873;DHT22;1444;49.166;7.312;2023-06-10T14:43:32;31.60;61.90
2873;DHT22;1444;49.166;7.312;2023-06-10T14:45:58;31.70;60.60
2873;DHT22;1444;49.166;7.312;2023-06-10T14:48:25;31.80;59.90
2873;DHT22;1444;49.166;7.312;2023-06-10T14:50:52;32.00;61.40
2873;DHT22;1444;49.166;7.312;2023-06-10T14:53:22;32.00;60.20
2873;DHT22;1444;49.166;7.312;2023-06-10T14:55:48;32.10;60.00
2873;DHT22;1444;49.166;7.312;2023-06-10T14:58:15;32.30;60.70
2873;DHT22;1444;49.166;7.312;2023-06-10T15:00:42;32.30;58.50
2873;DHT22;1444;49.166;7.312;2023-06-10T15:03:09;32.50;59.30
2873;DHT22;1444;49.166;7.312;2023-06-10T15:05:36;32.60;61.90
2873;DHT22;1444;49.166;7.312;2023-06-10T15:08:03;32.70;61.60
2873;DHT22;1444;49.166;7.312;2023-06-10T15:10:32;32.70;59.00
2873;DHT22;1444;49.166;7.312;2023-06-10T15:12:58;32.60;60.60
2873;DHT22;1444;49.166;7.312;2023-06-10T15:15:25;32.70;59.80
2873;DHT22;1444;49.166;7.312;2023-06-10T15:17:52;32.70;59.10
2873;DHT22;1444;49.166;7.312;2023-06-10T15:20:19;32.60;58.70
2873;DHT22;1444;49.166;7.312;2023-06-10T15:22:46;32.50;58.50
2873;DHT22;1444;49.166;7.312;2023-06-10T15:25:13;32.50;59.10
2873;DHT22;1444;49.166;7.312;2023-06-10T15:27:41;32.50;58.50
2873;DHT22;1444;49.166;7.312;2023-06-10T15:30:09;32.40;58.00
2873;DHT22;1444;49.166;7.312;2023-06-10T15:32:36;32.40;57.30
2873;DHT22;1444;49.166;7.312;2023-06-10T15:35:03;32.50;57.40
2873;DHT22;1444;49.166;7.312;2023-06-10T15:37:30;32.50;57.10
2873;DHT22;1444;49.166;7.312;2023-06-10T15:39:56;32.60;56.40
2873;DHT22;1444;49.166;7.312;2023-06-10T15:42:23;32.40;56.60
2873;DHT22;1444;49.166;7.312;2023-06-10T15:44:52;32.50;58.60
2873;DHT22;1444;49.166;7.312;2023-06-10T15:47:19;32.60;57.20
2873;DHT22;1444;49.166;7.312;2023-06-10T15:49:46;32.60;57.50
2873;DHT22;1444;49.166;7.312;2023-06-10T15:52:13;32.60;57.50
2873;DHT22;1444;49.166;7.312;2023-06-10T15:54:39;32.60;57.00
2873;DHT22;1444;49.166;7.312;2023-06-10T15:57:06;32.60;56.80
2873;DHT22;1444;49.166;7.312;2023-06-10T15:59:34;32.80;57.60
2873;DHT22;1444;49.166;7.312;2023-06-10T16:02:02;32.60;58.00
2873;DHT22;1444;49.166;7.312;2023-06-10T16:04:29;32.60;57.50
2873;DHT22;1444;49.166;7.312;2023-06-10T16:06:56;32.60;58.60
2873;DHT22;1444;49.166;7.312;2023-06-10T16:09:23;32.60;57.90
2873;DHT22;1444;49.166;7.312;2023-06-10T16:11:50;32.50;57.80
2873;DHT22;1444;49.166;7.312;2023-06-10T16:14:17;32.60;58.10
2873;DHT22;1444;49.166;7.312;2023-06-10T16:16:44;32.60;58.10
2873;DHT22;1444;49.166;7.312;2023-06-10T16:19:12;32.60;59.10
2873;DHT22;1444;49.166;7.312;2023-06-10T16:24:07;32.60;58.60